sensor_id;sensor_type;location;lat;lon;timestamp;P1;durP1;ratioP1;P2;durP2;ratioP2
80253;SDS011;69563;37.974;23.708;2023-05-09T00:00:12;3.75;;;2.13;;
80253;SDS011;69563;37.974;23.708;2023-05-09T00:02:39;4.40;;;2.20;;
80253;SDS011;69563;37.974;23.708;2023-05-09T00:05:05;2.65;;;1.92;;
80253;SDS011;69563;37.974;23.708;2023-05-09T00:07:32;4.05;;;2.20;;
80253;SDS011;69563;37.974;23.708;2023-05-09T00:09:58;3.88;;;2.30;;
80253;SDS011;69563;37.974;23.708;2023-05-09T00:12:25;3.67;;;2.40;;
80253;SDS011;69563;37.974;23.708;2023-05-09T00:14:52;4.75;;;2.40;;
80253;SDS011;69563;37.974;23.708;2023-05-09T00:17:20;3.45;;;2.10;;
80253;SDS011;69563;37.974;23.708;2023-05-09T00:19:47;3.45;;;2.50;;
80253;SDS011;69563;37.974;23.708;2023-05-09T00:22:14;3.25;;;2.33;;
80253;SDS011;69563;37.974;23.708;2023-05-09T00:24:41;4.25;;;2.55;;
80253;SDS011;69563;37.974;23.708;2023-05-09T00:27:07;4.03;;;2.38;;
80253;SDS011;69563;37.974;23.708;2023-05-09T00:29:32;4.40;;;2.40;;
80253;SDS011;69563;37.974;23.708;2023-05-09T00:31:58;3.97;;;2.70;;
80253;SDS011;69563;37.974;23.708;2023-05-09T00:34:24;4.28;;;2.60;;
80253;SDS011;69563;37.974;23.708;2023-05-09T00:36:49;4.20;;;2.40;;
80253;SDS011;69563;37.974;23.708;2023-05-09T00:39:15;3.83;;;2.50;;
80253;SDS011;69563;37.974;23.708;2023-05-09T00:41:41;4.05;;;2.50;;
80253;SDS011;69563;37.974;23.708;2023-05-09T00:44:07;3.55;;;2.40;;
80253;SDS011;69563;37.974;23.708;2023-05-09T00:46:33;3.63;;;2.58;;
80253;SDS011;69563;37.974;23.708;2023-05-09T00:48:58;3.60;;;2.60;;
80253;SDS011;69563;37.974;23.708;2023-05-09T00:51:24;3.35;;;2.28;;
80253;SDS011;69563;37.974;23.708;2023-05-09T00:53:52;3.47;;;2.50;;
80253;SDS011;69563;37.974;23.708;2023-05-09T00:56:18;6.03;;;2.92;;
80253;SDS011;69563;37.974;23.708;2023-05-09T00:58:44;4.55;;;2.58;;
80253;SDS011;69563;37.974;23.708;2023-05-09T01:01:09;4.43;;;2.70;;
80253;SDS011;69563;37.974;23.708;2023-05-09T01:03:37;4.20;;;2.50;;
80253;SDS011;69563;37.974;23.708;2023-05-09T01:08:54;4.50;;;2.75;;
80253;SDS011;69563;37.974;23.708;2023-05-09T01:11:25;4.45;;;3.13;;
80253;SDS011;69563;37.974;23.708;2023-05-09T01:14:04;3.80;;;2.60;;
80253;SDS011;69563;37.974;23.708;2023-05-09T01:16:46;4.18;;;2.65;;
80253;SDS011;69563;37.974;23.708;2023-05-09T01:19:39;4.47;;;2.60;;
80253;SDS011;69563;37.974;23.708;2023-05-09T01:22:35;4.53;;;2.47;;
80253;SDS011;69563;37.974;23.708;2023-05-09T01:30:58;3.95;;;2.40;;
80253;SDS011;69563;37.974;23.708;2023-05-09T01:33:25;4.50;;;2.45;;
80253;SDS011;69563;37.974;23.708;2023-05-09T01:35:52;3.75;;;2.50;;
80253;SDS011;69563;37.974;23.708;2023-05-09T01:38:25;3.83;;;2.70;;
80253;SDS011;69563;37.974;23.708;2023-05-09T01:40:55;4.22;;;2.70;;
80253;SDS011;69563;37.974;23.708;2023-05-09T01:43:24;4.10;;;2.80;;
80253;SDS011;69563;37.974;23.708;2023-05-09T01:45:51;4.60;;;2.58;;
80253;SDS011;69563;37.974;23.708;2023-05-09T01:48:19;3.75;;;2.60;;
80253;SDS011;69563;37.974;23.708;2023-05-09T01:50:50;3.90;;;2.78;;
80253;SDS011;69563;37.974;23.708;2023-05-09T01:53:17;4.18;;;2.72;;
80253;SDS011;69563;37.974;23.708;2023-05-09T01:55:44;4.82;;;2.72;;
80253;SDS011;69563;37.974;23.708;2023-05-09T01:58:11;4.07;;;2.58;;
80253;SDS011;69563;37.974;23.708;2023-05-09T02:00:37;4.40;;;2.90;;
80253;SDS011;69563;37.974;23.708;2023-05-09T02:03:03;4.00;;;2.70;;
80253;SDS011;69563;37.974;23.708;2023-05-09T02:05:30;4.60;;;2.60;;
80253;SDS011;69563;37.974;23.708;2023-05-09T02:07:57;4.00;;;2.70;;
80253;SDS011;69563;37.974;23.708;2023-05-09T02:10:23;3.92;;;2.65;;
80253;SDS011;69563;37.974;23.708;2023-05-09T02:12:51;4.50;;;3.00;;
80253;SDS011;69563;37.974;23.708;2023-05-09T02:15:17;4.93;;;3.10;;
80253;SDS011;69563;37.974;23.708;2023-05-09T02:17:43;4.38;;;2.85;;
80253;SDS011;69563;37.974;23.708;2023-05-09T02:20:09;4.22;;;2.88;;
80253;SDS011;69563;37.974;23.708;2023-05-09T02:22:35;4.45;;;2.65;;
80253;SDS011;69563;37.974;23.708;2023-05-09T02:25:04;4.55;;;2.85;;
80253;SDS011;69563;37.974;23.708;2023-05-09T02:27:32;4.32;;;2.90;;
80253;SDS011;69563;37.974;23.708;2023-05-09T02:29:59;4.90;;;2.85;;
80253;SDS011;69563;37.974;23.708;2023-05-09T02:32:29;4.50;;;3.00;;
80253;SDS011;69563;37.974;23.708;2023-05-09T02:34:57;3.78;;;2.55;;
80253;SDS011;69563;37.974;23.708;2023-05-09T02:37:24;4.57;;;2.78;;
80253;SDS011;69563;37.974;23.708;2023-05-09T02:39:51;4.20;;;2.80;;
80253;SDS011;69563;37.974;23.708;2023-05-09T02:42:19;4.10;;;2.78;;
80253;SDS011;69563;37.974;23.708;2023-05-09T02:44:49;6.97;;;2.90;;
80253;SDS011;69563;37.974;23.708;2023-05-09T02:47:15;5.50;;;3.00;;
80253;SDS011;69563;37.974;23.708;2023-05-09T02:49:41;3.92;;;2.70;;
80253;SDS011;69563;37.974;23.708;2023-05-09T02:52:06;4.88;;;2.70;;
80253;SDS011;69563;37.974;23.708;2023-05-09T02:54:32;4.53;;;2.90;;
80253;SDS011;69563;37.974;23.708;2023-05-09T02:56:58;6.15;;;2.92;;
80253;SDS011;69563;37.974;23.708;2023-05-09T02:59:24;4.22;;;2.80;;
80253;SDS011;69563;37.974;23.708;2023-05-09T03:01:50;4.80;;;2.70;;
80253;SDS011;69563;37.974;23.708;2023-05-09T03:04:16;4.10;;;2.80;;
80253;SDS011;69563;37.974;23.708;2023-05-09T03:06:42;4.20;;;2.70;;
80253;SDS011;69563;37.974;23.708;2023-05-09T03:09:08;4.18;;;2.78;;
80253;SDS011;69563;37.974;23.708;2023-05-09T03:11:34;4.25;;;2.67;;
80253;SDS011;69563;37.974;23.708;2023-05-09T03:14:03;4.35;;;2.75;;
80253;SDS011;69563;37.974;23.708;2023-05-09T03:16:29;5.78;;;2.70;;
80253;SDS011;69563;37.974;23.708;2023-05-09T03:18:55;5.07;;;2.70;;
80253;SDS011;69563;37.974;23.708;2023-05-09T03:21:21;5.18;;;2.70;;
80253;SDS011;69563;37.974;23.708;2023-05-09T03:23:46;4.85;;;2.60;;
80253;SDS011;69563;37.974;23.708;2023-05-09T03:26:12;6.13;;;2.60;;
80253;SDS011;69563;37.974;23.708;2023-05-09T03:28:38;5.30;;;2.60;;
80253;SDS011;69563;37.974;23.708;2023-05-09T03:31:04;3.85;;;2.63;;
80253;SDS011;69563;37.974;23.708;2023-05-09T03:33:30;5.13;;;2.60;;
80253;SDS011;69563;37.974;23.708;2023-05-09T03:35:56;3.05;;;2.28;;
80253;SDS011;69563;37.974;23.708;2023-05-09T03:38:21;4.18;;;2.50;;
80253;SDS011;69563;37.974;23.708;2023-05-09T03:40:52;4.57;;;2.47;;
80253;SDS011;69563;37.974;23.708;2023-05-09T03:43:18;4.32;;;2.45;;
80253;SDS011;69563;37.974;23.708;2023-05-09T03:45:43;4.05;;;2.42;;
80253;SDS011;69563;37.974;23.708;2023-05-09T03:48:09;5.40;;;2.40;;
80253;SDS011;69563;37.974;23.708;2023-05-09T03:50:36;4.30;;;2.50;;
80253;SDS011;69563;37.974;23.708;2023-05-09T03:53:02;5.82;;;2.47;;
80253;SDS011;69563;37.974;23.708;2023-05-09T03:55:28;3.85;;;2.30;;
80253;SDS011;69563;37.974;23.708;2023-05-09T03:57:55;4.85;;;2.45;;
80253;SDS011;69563;37.974;23.708;2023-05-09T04:00:21;4.15;;;2.10;;
80253;SDS011;69563;37.974;23.708;2023-05-09T04:02:47;4.40;;;2.20;;
80253;SDS011;69563;37.974;23.708;2023-05-09T04:05:13;3.72;;;2.30;;
80253;SDS011;69563;37.974;23.708;2023-05-09T04:07:40;4.82;;;2.28;;
80253;SDS011;69563;37.974;23.708;2023-05-09T04:10:06;3.78;;;2.40;;
80253;SDS011;69563;37.974;23.708;2023-05-09T04:12:32;3.22;;;2.03;;
80253;SDS011;69563;37.974;23.708;2023-05-09T04:14:58;4.63;;;2.17;;
80253;SDS011;69563;37.974;23.708;2023-05-09T04:17:24;3.85;;;2.30;;
80253;SDS011;69563;37.974;23.708;2023-05-09T04:19:50;4.22;;;2.30;;
80253;SDS011;69563;37.974;23.708;2023-05-09T04:22:16;6.38;;;2.40;;
80253;SDS011;69563;37.974;23.708;2023-05-09T04:24:42;4.20;;;2.40;;
80253;SDS011;69563;37.974;23.708;2023-05-09T04:27:07;4.57;;;2.75;;
80253;SDS011;69563;37.974;23.708;2023-05-09T04:29:33;4.38;;;2.40;;
80253;SDS011;69563;37.974;23.708;2023-05-09T04:31:59;3.60;;;2.42;;
80253;SDS011;69563;37.974;23.708;2023-05-09T04:34:26;5.25;;;2.33;;
80253;SDS011;69563;37.974;23.708;2023-05-09T04:36:52;4.93;;;2.50;;
80253;SDS011;69563;37.974;23.708;2023-05-09T04:39:18;5.00;;;2.30;;
80253;SDS011;69563;37.974;23.708;2023-05-09T04:41:44;6.63;;;3.15;;
80253;SDS011;69563;37.974;23.708;2023-05-09T04:44:12;7.05;;;2.88;;
80253;SDS011;69563;37.974;23.708;2023-05-09T04:46:38;5.05;;;2.58;;
80253;SDS011;69563;37.974;23.708;2023-05-09T04:49:04;4.25;;;2.60;;
80253;SDS011;69563;37.974;23.708;2023-05-09T04:51:30;6.57;;;3.00;;
80253;SDS011;69563;37.974;23.708;2023-05-09T04:53:56;21.27;;;3.35;;
80253;SDS011;69563;37.974;23.708;2023-05-09T04:56:21;6.57;;;2.80;;
80253;SDS011;69563;37.974;23.708;2023-05-09T04:58:47;9.18;;;3.03;;
80253;SDS011;69563;37.974;23.708;2023-05-09T05:01:13;10.98;;;3.03;;
80253;SDS011;69563;37.974;23.708;2023-05-09T05:03:40;7.95;;;3.35;;
80253;SDS011;69563;37.974;23.708;2023-05-09T05:06:06;7.53;;;3.10;;
80253;SDS011;69563;37.974;23.708;2023-05-09T05:08:32;7.53;;;2.53;;
80253;SDS011;69563;37.974;23.708;2023-05-09T05:10:58;4.45;;;2.38;;
80253;SDS011;69563;37.974;23.708;2023-05-09T05:13:24;5.78;;;2.63;;
80253;SDS011;69563;37.974;23.708;2023-05-09T05:15:49;4.72;;;2.60;;
80253;SDS011;69563;37.974;23.708;2023-05-09T05:18:16;6.95;;;2.60;;
80253;SDS011;69563;37.974;23.708;2023-05-09T05:20:42;6.10;;;2.40;;
80253;SDS011;69563;37.974;23.708;2023-05-09T05:23:08;5.10;;;2.30;;
80253;SDS011;69563;37.974;23.708;2023-05-09T05:25:34;5.05;;;2.40;;
80253;SDS011;69563;37.974;23.708;2023-05-09T05:28:00;5.88;;;2.35;;
80253;SDS011;69563;37.974;23.708;2023-05-09T05:30:26;4.30;;;2.10;;
80253;SDS011;69563;37.974;23.708;2023-05-09T05:32:52;5.53;;;2.00;;
80253;SDS011;69563;37.974;23.708;2023-05-09T05:35:17;4.53;;;2.08;;
80253;SDS011;69563;37.974;23.708;2023-05-09T05:37:46;3.97;;;2.08;;
80253;SDS011;69563;37.974;23.708;2023-05-09T05:40:12;4.85;;;2.10;;
80253;SDS011;69563;37.974;23.708;2023-05-09T05:42:37;4.07;;;1.98;;
80253;SDS011;69563;37.974;23.708;2023-05-09T05:45:03;5.35;;;2.00;;
80253;SDS011;69563;37.974;23.708;2023-05-09T05:47:33;3.85;;;2.10;;
80253;SDS011;69563;37.974;23.708;2023-05-09T05:50:00;3.67;;;2.10;;
80253;SDS011;69563;37.974;23.708;2023-05-09T05:52:26;5.75;;;2.10;;
80253;SDS011;69563;37.974;23.708;2023-05-09T05:54:52;3.15;;;1.95;;
80253;SDS011;69563;37.974;23.708;2023-05-09T05:57:18;3.30;;;1.95;;
80253;SDS011;69563;37.974;23.708;2023-05-09T05:59:48;8.32;;;2.10;;
80253;SDS011;69563;37.974;23.708;2023-05-09T06:02:17;5.72;;;2.35;;
80253;SDS011;69563;37.974;23.708;2023-05-09T06:04:42;3.33;;;2.00;;
80253;SDS011;69563;37.974;23.708;2023-05-09T06:07:08;4.90;;;2.50;;
80253;SDS011;69563;37.974;23.708;2023-05-09T06:09:35;7.00;;;2.75;;
80253;SDS011;69563;37.974;23.708;2023-05-09T06:12:01;8.55;;;2.40;;
80253;SDS011;69563;37.974;23.708;2023-05-09T06:14:27;7.18;;;2.53;;
80253;SDS011;69563;37.974;23.708;2023-05-09T06:16:52;11.02;;;2.67;;
80253;SDS011;69563;37.974;23.708;2023-05-09T06:19:18;7.38;;;2.65;;
80253;SDS011;69563;37.974;23.708;2023-05-09T06:21:44;7.75;;;2.40;;
80253;SDS011;69563;37.974;23.708;2023-05-09T06:24:10;11.90;;;2.80;;
80253;SDS011;69563;37.974;23.708;2023-05-09T06:26:35;10.80;;;2.92;;
80253;SDS011;69563;37.974;23.708;2023-05-09T06:29:02;9.98;;;2.60;;
80253;SDS011;69563;37.974;23.708;2023-05-09T06:31:28;6.60;;;2.30;;
80253;SDS011;69563;37.974;23.708;2023-05-09T06:33:54;5.90;;;2.08;;
80253;SDS011;69563;37.974;23.708;2023-05-09T06:36:19;5.07;;;2.17;;
80253;SDS011;69563;37.974;23.708;2023-05-09T06:38:45;6.75;;;2.38;;
80253;SDS011;69563;37.974;23.708;2023-05-09T06:41:11;5.18;;;2.13;;
80253;SDS011;69563;37.974;23.708;2023-05-09T06:43:37;4.85;;;2.00;;
80253;SDS011;69563;37.974;23.708;2023-05-09T06:46:03;4.78;;;2.10;;
80253;SDS011;69563;37.974;23.708;2023-05-09T06:48:29;4.10;;;1.83;;
80253;SDS011;69563;37.974;23.708;2023-05-09T06:50:55;3.67;;;1.90;;
80253;SDS011;69563;37.974;23.708;2023-05-09T06:53:21;4.32;;;2.05;;
80253;SDS011;69563;37.974;23.708;2023-05-09T06:55:46;4.38;;;2.00;;
80253;SDS011;69563;37.974;23.708;2023-05-09T06:58:12;5.10;;;1.52;;
80253;SDS011;69563;37.974;23.708;2023-05-09T07:00:38;3.78;;;1.70;;
80253;SDS011;69563;37.974;23.708;2023-05-09T07:03:04;3.38;;;1.65;;
80253;SDS011;69563;37.974;23.708;2023-05-09T07:05:31;4.28;;;1.52;;
80253;SDS011;69563;37.974;23.708;2023-05-09T07:07:58;4.43;;;1.83;;
80253;SDS011;69563;37.974;23.708;2023-05-09T07:10:25;3.70;;;1.73;;
80253;SDS011;69563;37.974;23.708;2023-05-09T07:12:51;4.35;;;1.98;;
80253;SDS011;69563;37.974;23.708;2023-05-09T07:15:17;3.30;;;2.05;;
80253;SDS011;69563;37.974;23.708;2023-05-09T07:17:43;5.70;;;2.00;;
80253;SDS011;69563;37.974;23.708;2023-05-09T07:20:09;6.10;;;2.15;;
80253;SDS011;69563;37.974;23.708;2023-05-09T07:22:37;7.55;;;2.28;;
80253;SDS011;69563;37.974;23.708;2023-05-09T07:25:06;5.75;;;2.35;;
80253;SDS011;69563;37.974;23.708;2023-05-09T07:27:34;6.70;;;2.70;;
80253;SDS011;69563;37.974;23.708;2023-05-09T07:30:02;6.90;;;2.85;;
80253;SDS011;69563;37.974;23.708;2023-05-09T07:32:30;5.63;;;2.83;;
80253;SDS011;69563;37.974;23.708;2023-05-09T07:34:56;5.97;;;2.60;;
80253;SDS011;69563;37.974;23.708;2023-05-09T07:37:31;6.80;;;3.00;;
80253;SDS011;69563;37.974;23.708;2023-05-09T07:40:00;6.05;;;2.95;;
80253;SDS011;69563;37.974;23.708;2023-05-09T07:42:27;5.55;;;2.72;;
80253;SDS011;69563;37.974;23.708;2023-05-09T07:44:56;7.82;;;3.13;;
80253;SDS011;69563;37.974;23.708;2023-05-09T07:47:23;7.10;;;3.10;;
80253;SDS011;69563;37.974;23.708;2023-05-09T07:49:49;7.65;;;3.08;;
80253;SDS011;69563;37.974;23.708;2023-05-09T07:52:15;6.78;;;3.10;;
80253;SDS011;69563;37.974;23.708;2023-05-09T07:54:42;6.88;;;3.13;;
80253;SDS011;69563;37.974;23.708;2023-05-09T07:57:08;7.82;;;3.10;;
80253;SDS011;69563;37.974;23.708;2023-05-09T07:59:33;5.00;;;2.80;;
80253;SDS011;69563;37.974;23.708;2023-05-09T08:01:59;5.70;;;2.65;;
80253;SDS011;69563;37.974;23.708;2023-05-09T08:04:27;5.55;;;2.80;;
80253;SDS011;69563;37.974;23.708;2023-05-09T08:06:53;7.80;;;3.00;;
80253;SDS011;69563;37.974;23.708;2023-05-09T08:09:19;5.75;;;2.80;;
80253;SDS011;69563;37.974;23.708;2023-05-09T08:11:45;7.45;;;3.17;;
80253;SDS011;69563;37.974;23.708;2023-05-09T08:14:11;7.18;;;2.97;;
80253;SDS011;69563;37.974;23.708;2023-05-09T08:16:37;9.30;;;3.38;;
80253;SDS011;69563;37.974;23.708;2023-05-09T08:19:02;6.75;;;2.70;;
80253;SDS011;69563;37.974;23.708;2023-05-09T08:21:28;6.53;;;3.15;;
80253;SDS011;69563;37.974;23.708;2023-05-09T08:23:54;7.05;;;3.13;;
80253;SDS011;69563;37.974;23.708;2023-05-09T08:26:19;6.28;;;2.72;;
80253;SDS011;69563;37.974;23.708;2023-05-09T08:28:46;5.85;;;3.03;;
80253;SDS011;69563;37.974;23.708;2023-05-09T08:31:13;6.30;;;3.10;;
80253;SDS011;69563;37.974;23.708;2023-05-09T08:33:38;6.53;;;3.13;;
80253;SDS011;69563;37.974;23.708;2023-05-09T08:36:04;6.35;;;3.10;;
80253;SDS011;69563;37.974;23.708;2023-05-09T08:38:30;7.65;;;3.10;;
80253;SDS011;69563;37.974;23.708;2023-05-09T08:40:59;7.35;;;2.53;;
80253;SDS011;69563;37.974;23.708;2023-05-09T08:43:26;6.40;;;3.10;;
80253;SDS011;69563;37.974;23.708;2023-05-09T08:45:54;7.82;;;2.88;;
80253;SDS011;69563;37.974;23.708;2023-05-09T08:48:25;7.55;;;3.13;;
80253;SDS011;69563;37.974;23.708;2023-05-09T08:50:52;6.78;;;2.90;;
80253;SDS011;69563;37.974;23.708;2023-05-09T08:53:21;7.50;;;3.10;;
80253;SDS011;69563;37.974;23.708;2023-05-09T08:55:47;5.00;;;3.40;;
80253;SDS011;69563;37.974;23.708;2023-05-09T08:58:18;8.48;;;3.20;;
80253;SDS011;69563;37.974;23.708;2023-05-09T09:00:44;9.35;;;3.40;;
80253;SDS011;69563;37.974;23.708;2023-05-09T09:03:11;9.30;;;3.20;;
80253;SDS011;69563;37.974;23.708;2023-05-09T09:05:36;7.78;;;3.40;;
80253;SDS011;69563;37.974;23.708;2023-05-09T09:08:05;9.32;;;3.08;;
80253;SDS011;69563;37.974;23.708;2023-05-09T09:10:32;8.48;;;3.50;;
80253;SDS011;69563;37.974;23.708;2023-05-09T09:12:59;6.85;;;3.60;;
80253;SDS011;69563;37.974;23.708;2023-05-09T09:15:29;6.40;;;3.35;;
80253;SDS011;69563;37.974;23.708;2023-05-09T09:18:02;8.65;;;3.28;;
80253;SDS011;69563;37.974;23.708;2023-05-09T09:20:33;7.22;;;3.30;;
80253;SDS011;69563;37.974;23.708;2023-05-09T09:23:02;7.75;;;3.50;;
80253;SDS011;69563;37.974;23.708;2023-05-09T09:25:29;8.35;;;3.42;;
80253;SDS011;69563;37.974;23.708;2023-05-09T09:27:55;7.30;;;3.38;;
80253;SDS011;69563;37.974;23.708;2023-05-09T09:30:22;8.02;;;3.42;;
80253;SDS011;69563;37.974;23.708;2023-05-09T09:32:48;9.32;;;3.63;;
80253;SDS011;69563;37.974;23.708;2023-05-09T09:35:14;5.60;;;3.42;;
80253;SDS011;69563;37.974;23.708;2023-05-09T09:37:41;7.55;;;3.63;;
80253;SDS011;69563;37.974;23.708;2023-05-09T09:40:07;8.65;;;3.40;;
80253;SDS011;69563;37.974;23.708;2023-05-09T09:42:44;5.97;;;3.40;;
80253;SDS011;69563;37.974;23.708;2023-05-09T09:45:12;8.07;;;3.63;;
80253;SDS011;69563;37.974;23.708;2023-05-09T09:47:39;7.55;;;3.50;;
80253;SDS011;69563;37.974;23.708;2023-05-09T09:55:24;7.90;;;3.40;;
80253;SDS011;69563;37.974;23.708;2023-05-09T09:57:50;6.80;;;3.83;;
80253;SDS011;69563;37.974;23.708;2023-05-09T10:00:26;6.43;;;3.33;;
80253;SDS011;69563;37.974;23.708;2023-05-09T10:02:53;5.43;;;3.40;;
80253;SDS011;69563;37.974;23.708;2023-05-09T10:05:24;6.35;;;3.63;;
80253;SDS011;69563;37.974;23.708;2023-05-09T10:07:58;5.88;;;3.47;;
80253;SDS011;69563;37.974;23.708;2023-05-09T10:10:29;7.60;;;3.92;;
80253;SDS011;69563;37.974;23.708;2023-05-09T10:12:56;8.88;;;3.38;;
80253;SDS011;69563;37.974;23.708;2023-05-09T10:15:23;7.72;;;3.60;;
80253;SDS011;69563;37.974;23.708;2023-05-09T10:17:52;6.65;;;4.03;;
80253;SDS011;69563;37.974;23.708;2023-05-09T10:20:20;6.05;;;3.90;;
80253;SDS011;69563;37.974;23.708;2023-05-09T10:22:46;7.55;;;4.50;;
80253;SDS011;69563;37.974;23.708;2023-05-09T10:25:18;9.48;;;4.05;;
80253;SDS011;69563;37.974;23.708;2023-05-09T10:27:46;8.07;;;4.05;;
80253;SDS011;69563;37.974;23.708;2023-05-09T10:30:16;8.20;;;4.07;;
80253;SDS011;69563;37.974;23.708;2023-05-09T10:33:01;12.68;;;4.53;;
80253;SDS011;69563;37.974;23.708;2023-05-09T10:35:32;8.10;;;4.07;;
80253;SDS011;69563;37.974;23.708;2023-05-09T10:38:01;10.65;;;4.15;;
80253;SDS011;69563;37.974;23.708;2023-05-09T10:40:27;9.88;;;4.50;;
80253;SDS011;69563;37.974;23.708;2023-05-09T10:42:55;10.50;;;4.68;;
80253;SDS011;69563;37.974;23.708;2023-05-09T10:45:20;8.82;;;4.82;;
80253;SDS011;69563;37.974;23.708;2023-05-09T10:47:47;6.63;;;4.30;;
80253;SDS011;69563;37.974;23.708;2023-05-09T10:50:15;10.02;;;4.90;;
80253;SDS011;69563;37.974;23.708;2023-05-09T10:55:38;10.60;;;5.20;;
80253;SDS011;69563;37.974;23.708;2023-05-09T11:00:50;7.28;;;4.45;;
80253;SDS011;69563;37.974;23.708;2023-05-09T11:03:18;10.98;;;4.45;;
80253;SDS011;69563;37.974;23.708;2023-05-09T11:05:44;9.32;;;4.18;;
80253;SDS011;69563;37.974;23.708;2023-05-09T11:10:42;7.53;;;4.20;;
80253;SDS011;69563;37.974;23.708;2023-05-09T11:13:08;7.20;;;4.40;;
80253;SDS011;69563;37.974;23.708;2023-05-09T11:15:35;9.77;;;4.93;;
80253;SDS011;69563;37.974;23.708;2023-05-09T11:18:13;7.30;;;3.83;;
80253;SDS011;69563;37.974;23.708;2023-05-09T11:20:43;9.00;;;4.18;;
80253;SDS011;69563;37.974;23.708;2023-05-09T11:23:10;8.25;;;4.18;;
80253;SDS011;69563;37.974;23.708;2023-05-09T11:25:41;9.25;;;4.43;;
80253;SDS011;69563;37.974;23.708;2023-05-09T11:28:09;9.50;;;4.45;;
80253;SDS011;69563;37.974;23.708;2023-05-09T11:30:49;9.55;;;4.53;;
80253;SDS011;69563;37.974;23.708;2023-05-09T11:33:22;8.95;;;4.50;;
80253;SDS011;69563;37.974;23.708;2023-05-09T11:39:00;7.82;;;3.80;;
80253;SDS011;69563;37.974;23.708;2023-05-09T11:41:30;7.90;;;4.25;;
80253;SDS011;69563;37.974;23.708;2023-05-09T11:44:03;9.43;;;4.07;;
80253;SDS011;69563;37.974;23.708;2023-05-09T11:49:12;7.55;;;4.28;;
80253;SDS011;69563;37.974;23.708;2023-05-09T11:51:38;7.07;;;3.88;;
80253;SDS011;69563;37.974;23.708;2023-05-09T11:54:04;6.07;;;4.15;;
80253;SDS011;69563;37.974;23.708;2023-05-09T11:56:36;11.07;;;4.73;;
80253;SDS011;69563;37.974;23.708;2023-05-09T11:59:03;11.57;;;4.65;;
80253;SDS011;69563;37.974;23.708;2023-05-09T12:01:30;6.80;;;3.90;;
80253;SDS011;69563;37.974;23.708;2023-05-09T12:03:56;13.25;;;4.40;;
80253;SDS011;69563;37.974;23.708;2023-05-09T12:06:23;8.55;;;4.50;;
80253;SDS011;69563;37.974;23.708;2023-05-09T12:08:50;8.68;;;4.57;;
80253;SDS011;69563;37.974;23.708;2023-05-09T12:11:16;7.15;;;4.43;;
80253;SDS011;69563;37.974;23.708;2023-05-09T12:13:49;7.13;;;4.28;;
80253;SDS011;69563;37.974;23.708;2023-05-09T12:16:16;9.90;;;4.57;;
80253;SDS011;69563;37.974;23.708;2023-05-09T12:18:49;9.00;;;4.78;;
80253;SDS011;69563;37.974;23.708;2023-05-09T12:21:16;7.38;;;4.53;;
80253;SDS011;69563;37.974;23.708;2023-05-09T12:23:43;12.43;;;4.28;;
80253;SDS011;69563;37.974;23.708;2023-05-09T12:26:10;8.15;;;4.57;;
80253;SDS011;69563;37.974;23.708;2023-05-09T12:28:36;11.70;;;4.57;;
80253;SDS011;69563;37.974;23.708;2023-05-09T12:31:02;7.57;;;4.05;;
80253;SDS011;69563;37.974;23.708;2023-05-09T12:33:29;7.90;;;4.28;;
80253;SDS011;69563;37.974;23.708;2023-05-09T12:36:09;8.13;;;4.20;;
80253;SDS011;69563;37.974;23.708;2023-05-09T12:38:36;7.57;;;4.28;;
80253;SDS011;69563;37.974;23.708;2023-05-09T12:41:09;7.35;;;4.70;;
80253;SDS011;69563;37.974;23.708;2023-05-09T12:43:36;8.27;;;4.43;;
80253;SDS011;69563;37.974;23.708;2023-05-09T12:46:04;8.05;;;4.60;;
80253;SDS011;69563;37.974;23.708;2023-05-09T12:48:34;10.18;;;4.30;;
80253;SDS011;69563;37.974;23.708;2023-05-09T12:51:02;9.07;;;4.68;;
80253;SDS011;69563;37.974;23.708;2023-05-09T12:53:29;14.55;;;4.75;;
80253;SDS011;69563;37.974;23.708;2023-05-09T12:56:02;8.25;;;4.65;;
80253;SDS011;69563;37.974;23.708;2023-05-09T12:58:32;8.65;;;4.30;;
80253;SDS011;69563;37.974;23.708;2023-05-09T13:00:59;7.15;;;4.30;;
80253;SDS011;69563;37.974;23.708;2023-05-09T13:03:27;8.40;;;4.35;;
80253;SDS011;69563;37.974;23.708;2023-05-09T13:06:03;9.80;;;4.45;;
80253;SDS011;69563;37.974;23.708;2023-05-09T13:08:36;7.55;;;4.13;;
80253;SDS011;69563;37.974;23.708;2023-05-09T13:11:03;10.65;;;4.50;;
80253;SDS011;69563;37.974;23.708;2023-05-09T13:13:29;7.85;;;4.32;;
80253;SDS011;69563;37.974;23.708;2023-05-09T13:15:55;8.73;;;4.20;;
80253;SDS011;69563;37.974;23.708;2023-05-09T13:18:21;7.22;;;3.60;;
80253;SDS011;69563;37.974;23.708;2023-05-09T13:20:48;7.82;;;3.88;;
80253;SDS011;69563;37.974;23.708;2023-05-09T13:23:15;7.22;;;3.78;;
80253;SDS011;69563;37.974;23.708;2023-05-09T13:25:41;6.85;;;3.25;;
80253;SDS011;69563;37.974;23.708;2023-05-09T13:28:06;6.25;;;3.83;;
80253;SDS011;69563;37.974;23.708;2023-05-09T13:30:33;6.22;;;3.40;;
80253;SDS011;69563;37.974;23.708;2023-05-09T13:32:59;6.20;;;3.65;;
80253;SDS011;69563;37.974;23.708;2023-05-09T13:35:24;6.45;;;3.83;;
80253;SDS011;69563;37.974;23.708;2023-05-09T13:37:50;8.27;;;4.10;;
80253;SDS011;69563;37.974;23.708;2023-05-09T13:40:16;7.40;;;4.40;;
80253;SDS011;69563;37.974;23.708;2023-05-09T13:42:42;8.20;;;4.70;;
80253;SDS011;69563;37.974;23.708;2023-05-09T13:45:07;8.68;;;5.20;;
80253;SDS011;69563;37.974;23.708;2023-05-09T13:47:33;8.45;;;6.20;;
80253;SDS011;69563;37.974;23.708;2023-05-09T13:50:00;9.70;;;6.25;;
80253;SDS011;69563;37.974;23.708;2023-05-09T13:52:26;10.18;;;6.63;;
80253;SDS011;69563;37.974;23.708;2023-05-09T13:54:52;7.93;;;5.95;;
80253;SDS011;69563;37.974;23.708;2023-05-09T13:57:38;9.63;;;6.65;;
80253;SDS011;69563;37.974;23.708;2023-05-09T14:00:04;8.63;;;6.30;;
80253;SDS011;69563;37.974;23.708;2023-05-09T14:02:31;9.70;;;6.47;;
80253;SDS011;69563;37.974;23.708;2023-05-09T14:04:57;9.43;;;6.20;;
80253;SDS011;69563;37.974;23.708;2023-05-09T14:07:23;9.18;;;5.78;;
80253;SDS011;69563;37.974;23.708;2023-05-09T14:09:50;10.85;;;6.22;;
80253;SDS011;69563;37.974;23.708;2023-05-09T14:12:16;9.95;;;6.20;;
80253;SDS011;69563;37.974;23.708;2023-05-09T14:14:41;9.95;;;5.65;;
80253;SDS011;69563;37.974;23.708;2023-05-09T14:17:07;7.40;;;5.50;;
80253;SDS011;69563;37.974;23.708;2023-05-09T14:19:33;7.60;;;5.40;;
80253;SDS011;69563;37.974;23.708;2023-05-09T14:21:59;7.03;;;4.93;;
80253;SDS011;69563;37.974;23.708;2023-05-09T14:24:24;7.53;;;4.80;;
80253;SDS011;69563;37.974;23.708;2023-05-09T14:26:50;7.60;;;4.38;;
80253;SDS011;69563;37.974;23.708;2023-05-09T14:29:16;7.35;;;4.75;;
80253;SDS011;69563;37.974;23.708;2023-05-09T14:31:42;6.35;;;4.10;;
80253;SDS011;69563;37.974;23.708;2023-05-09T14:34:07;6.95;;;4.32;;
80253;SDS011;69563;37.974;23.708;2023-05-09T14:36:33;7.20;;;4.00;;
80253;SDS011;69563;37.974;23.708;2023-05-09T14:38:59;6.18;;;4.07;;
80253;SDS011;69563;37.974;23.708;2023-05-09T14:41:25;5.90;;;4.05;;
80253;SDS011;69563;37.974;23.708;2023-05-09T14:43:50;5.85;;;3.65;;
80253;SDS011;69563;37.974;23.708;2023-05-09T14:46:16;5.25;;;3.70;;
80253;SDS011;69563;37.974;23.708;2023-05-09T14:48:42;5.68;;;3.58;;
80253;SDS011;69563;37.974;23.708;2023-05-09T14:51:08;6.22;;;3.80;;
80253;SDS011;69563;37.974;23.708;2023-05-09T14:53:33;4.93;;;3.40;;
80253;SDS011;69563;37.974;23.708;2023-05-09T14:56:04;6.07;;;3.80;;
80253;SDS011;69563;37.974;23.708;2023-05-09T14:58:30;5.55;;;3.35;;
80253;SDS011;69563;37.974;23.708;2023-05-09T15:00:58;5.75;;;3.50;;